createdAt,value
2024-02-19T00:01:19.452Z,101493.66
2024-02-19T00:03:49.788Z,101495.57
2024-02-19T00:06:17.884Z,101492.83
2024-02-19T00:08:45.765Z,101486.33
2024-02-19T00:11:15.229Z,101478.23
2024-02-19T00:13:43.230Z,101473.88
2024-02-19T00:16:11.876Z,101470.63
2024-02-19T00:18:40.526Z,101461.83
2024-02-19T00:21:08.664Z,101454.69
2024-02-19T00:23:39.191Z,101445.06
2024-02-19T00:26:07.157Z,101433.70
2024-02-19T00:28:35.122Z,101429.29
2024-02-19T00:31:03.256Z,101425.48
2024-02-19T00:33:32.816Z,101420.34
2024-02-19T00:36:01.076Z,101415.52
2024-02-19T00:38:29.043Z,101415.45
2024-02-19T00:40:57.128Z,101412.19
2024-02-19T00:43:25.184Z,101416.88
2024-02-19T00:45:53.196Z,101420.04
2024-02-19T00:48:21.433Z,101416.95
2024-02-19T00:50:50.055Z,101416.21
2024-02-19T00:53:18.396Z,101408.45
2024-02-19T00:55:46.558Z,101400.27
2024-02-19T00:58:14.634Z,101395.78
2024-02-19T01:00:42.798Z,101386.88
2024-02-19T01:03:12.657Z,101380.34
2024-02-19T01:05:40.693Z,101375.44
2024-02-19T01:08:08.662Z,101373.17
2024-02-19T01:10:36.615Z,101368.45
2024-02-19T01:13:04.980Z,101364.02
2024-02-19T01:15:32.864Z,101362.21
2024-02-19T01:18:00.876Z,101360.83
2024-02-19T01:20:29.140Z,101358.09
2024-02-19T01:22:57.179Z,101350.30
2024-02-19T01:25:26.006Z,101339.92
2024-02-19T01:27:54.067Z,101333.96
2024-02-19T01:30:22.103Z,101331.11
2024-02-19T01:32:50.033Z,101325.69
2024-02-19T01:35:18.235Z,101324.21
2024-02-19T01:37:46.521Z,101318.29
2024-02-19T01:40:16.802Z,101308.89
2024-02-19T01:42:44.948Z,101302.59
2024-02-19T01:45:27.153Z,101297.88
2024-02-19T01:47:59.894Z,101290.48
2024-02-19T01:50:33.918Z,101283.85
2024-02-19T01:53:10.957Z,101278.91
2024-02-19T01:55:41.625Z,101278.02
2024-02-19T01:58:12.583Z,101273.71
2024-02-19T02:00:41.925Z,101273.31
2024-02-19T02:03:13.014Z,101268.95
2024-02-19T02:05:41.394Z,101266.29
2024-02-19T02:08:10.401Z,101265.36
2024-02-19T02:10:38.441Z,101260.19
2024-02-19T02:13:06.427Z,101258.25
2024-02-19T02:15:34.779Z,101260.41
2024-02-19T02:18:02.915Z,101257.31
2024-02-19T02:20:32.841Z,101252.64
2024-02-19T02:23:01.160Z,101243.89
2024-02-19T02:25:29.055Z,101239.00
2024-02-19T02:27:58.833Z,101231.43
2024-02-19T02:30:27.025Z,101214.84
2024-02-19T02:32:57.128Z,101206.75
2024-02-19T02:35:25.699Z,101204.73
2024-02-19T02:37:53.663Z,101201.09
2024-02-19T02:40:22.152Z,101198.44
2024-02-19T02:42:50.281Z,101189.09
2024-02-19T02:45:18.574Z,101184.61
2024-02-19T02:47:46.603Z,101185.12
2024-02-19T02:50:14.658Z,101180.52
2024-02-19T02:52:43.612Z,101172.38
2024-02-19T02:55:11.500Z,101171.38
2024-02-19T02:57:39.377Z,101172.38
2024-02-19T03:00:09.876Z,101178.27
2024-02-19T03:02:37.955Z,101185.58
2024-02-19T03:05:06.038Z,101175.52
2024-02-19T03:07:34.048Z,101159.43
2024-02-19T03:10:02.298Z,101147.59
2024-02-19T03:12:30.676Z,101140.16
2024-02-19T03:14:58.756Z,101141.62
2024-02-19T03:17:26.737Z,101138.27
2024-02-19T03:19:54.872Z,101143.98
2024-02-19T03:22:25.117Z,101140.96
2024-02-19T03:24:53.163Z,101135.27
2024-02-19T03:27:21.110Z,101136.52
2024-02-19T03:29:49.081Z,101140.44
2024-02-19T03:32:17.052Z,101131.32
2024-02-19T03:34:45.070Z,101131.11
2024-02-19T03:37:13.557Z,101124.31
2024-02-19T03:39:41.483Z,101119.36
2024-02-19T03:42:09.434Z,101111.02
2024-02-19T03:44:37.504Z,101105.17
2024-02-19T03:47:05.473Z,101098.73
2024-02-19T03:49:33.523Z,101097.46
2024-02-19T03:52:01.646Z,101095.05
2024-02-19T03:54:29.732Z,101082.27
2024-02-19T03:56:57.649Z,101070.23
2024-02-19T03:59:25.635Z,101070.02
2024-02-19T04:01:53.717Z,101064.11
2024-02-19T04:04:21.957Z,101056.55
2024-02-19T04:06:51.450Z,101058.06
2024-02-19T04:09:20.153Z,101047.71
2024-02-19T04:11:48.162Z,101035.36
2024-02-19T04:14:16.191Z,101034.21
2024-02-19T04:16:44.570Z,101037.33
2024-02-19T04:19:12.673Z,101038.52
2024-02-19T04:21:47.487Z,101043.28
2024-02-19T04:24:15.641Z,101039.63
2024-02-19T04:26:43.842Z,101035.36
2024-02-19T04:29:12.190Z,101031.44
2024-02-19T04:31:42.409Z,101028.70
2024-02-19T04:34:10.796Z,101024.58
2024-02-19T04:36:38.966Z,101019.80
2024-02-19T04:39:07.052Z,101019.82
2024-02-19T04:41:35.016Z,101013.71
2024-02-19T04:44:03.084Z,101008.95
2024-02-19T04:46:34.226Z,101008.30
2024-02-19T04:49:02.288Z,101000.11
2024-02-19T04:51:30.733Z,100987.02
2024-02-19T04:53:58.753Z,100980.05
2024-02-19T04:56:26.836Z,100973.78
2024-02-19T04:58:56.386Z,100967.92
2024-02-19T05:01:24.423Z,100963.12
2024-02-19T05:03:54.977Z,100957.91
2024-02-19T05:06:23.133Z,100956.35
2024-02-19T05:08:51.482Z,100961.59
2024-02-19T05:11:19.443Z,100961.41
2024-02-19T05:13:49.450Z,100949.63
2024-02-19T05:16:17.499Z,100936.35
2024-02-19T05:18:46.534Z,100938.26
2024-02-19T05:21:15.518Z,100931.58
2024-02-19T05:23:43.468Z,100937.09
2024-02-19T05:26:11.426Z,100941.73
2024-02-19T05:28:39.398Z,100930.91
2024-02-19T05:31:07.468Z,100929.77
2024-02-19T05:33:35.882Z,100931.18
2024-02-19T05:36:03.918Z,100931.90
2024-02-19T05:38:31.896Z,100926.03
2024-02-19T05:41:01.185Z,100925.60
2024-02-19T05:43:29.195Z,100923.61
2024-02-19T05:45:57.279Z,100918.48
2024-02-19T05:48:25.906Z,100914.45
2024-02-19T05:50:53.913Z,100910.34
2024-02-19T05:53:21.878Z,100902.48
2024-02-19T05:55:50.052Z,100896.20
2024-02-19T05:58:18.165Z,100894.01
2024-02-19T06:00:46.415Z,100879.65
2024-02-19T06:03:14.569Z,100873.77
2024-02-19T06:05:42.583Z,100872.64
2024-02-19T06:08:10.575Z,100873.10
2024-02-19T06:10:38.484Z,100875.77
2024-02-19T06:13:06.867Z,100881.44
2024-02-19T06:15:34.890Z,100876.60
2024-02-19T06:18:03.130Z,100875.06
2024-02-19T06:20:31.534Z,100874.39
2024-02-19T06:22:59.522Z,100868.16
2024-02-19T06:25:27.522Z,100860.52
2024-02-19T06:27:55.597Z,100857.08
2024-02-19T06:30:23.651Z,100853.55
2024-02-19T06:32:51.711Z,100852.39
2024-02-19T06:35:19.841Z,100848.81
2024-02-19T06:37:49.805Z,100841.65
2024-02-19T06:40:17.853Z,100839.09
2024-02-19T06:42:45.880Z,100836.86
2024-02-19T06:45:13.883Z,100837.19
2024-02-19T06:47:44.755Z,100835.09
2024-02-19T06:50:12.668Z,100831.20
2024-02-19T06:52:44.734Z,100831.84
2024-02-19T06:55:16.937Z,100825.23
2024-02-19T06:57:45.628Z,100818.40
2024-02-19T07:00:14.385Z,100815.60
2024-02-19T07:02:42.459Z,100809.69
2024-02-19T07:05:10.627Z,100812.77
2024-02-19T07:07:39.245Z,100809.89
2024-02-19T07:10:08.134Z,100807.02
2024-02-19T07:12:36.061Z,100811.43
2024-02-19T07:15:04.563Z,100809.23
2024-02-19T07:17:32.571Z,100809.70
2024-02-19T07:20:00.706Z,100813.80
2024-02-19T07:22:29.031Z,100808.52
2024-02-19T07:25:06.020Z,100807.88
2024-02-19T07:27:42.366Z,100806.63
2024-02-19T07:30:12.208Z,100811.60
2024-02-19T07:32:40.342Z,100806.29
2024-02-19T07:35:08.707Z,100803.36
2024-02-19T07:37:37.184Z,100804.95
2024-02-19T07:40:06.974Z,100803.61
2024-02-19T07:42:34.966Z,100806.05
2024-02-19T07:45:03.417Z,100800.90
2024-02-19T07:47:31.337Z,100797.67
2024-02-19T07:49:59.363Z,100795.92
2024-02-19T07:52:27.417Z,100790.52
2024-02-19T07:54:55.671Z,100791.67
2024-02-19T07:57:23.595Z,100790.00
2024-02-19T07:59:51.481Z,100783.48
2024-02-19T08:02:19.469Z,100784.72
2024-02-19T08:04:47.607Z,100780.45
2024-02-19T08:07:15.819Z,100777.06
2024-02-19T08:09:44.883Z,100775.43
2024-02-19T08:12:14.444Z,100772.61
2024-02-19T08:14:42.414Z,100773.52
2024-02-19T08:17:10.480Z,100774.44
2024-02-19T08:19:38.420Z,100770.59
2024-02-19T08:22:06.568Z,100764.52
2024-02-19T08:24:34.609Z,100765.11
2024-02-19T08:29:55.736Z,100757.66
2024-02-19T08:32:23.633Z,100758.24
2024-02-19T08:34:51.623Z,100753.27
2024-02-19T08:37:20.088Z,100752.95
2024-02-19T08:39:48.999Z,100747.73
2024-02-19T08:42:16.952Z,100753.16
2024-02-19T08:44:44.862Z,100749.60
2024-02-19T08:47:12.971Z,100742.44
2024-02-19T08:49:42.000Z,100742.17
2024-02-19T08:52:10.365Z,100737.85
2024-02-19T08:54:38.367Z,100737.94
2024-02-19T08:57:06.488Z,100733.80
2024-02-19T08:59:35.087Z,100731.86
2024-02-19T09:02:03.290Z,100730.14
2024-02-19T09:04:31.446Z,100726.60
2024-02-19T09:06:59.762Z,100725.85
2024-02-19T09:09:27.685Z,100724.03
2024-02-19T09:11:55.589Z,100715.80
2024-02-19T09:14:23.505Z,100714.22
2024-02-19T09:16:51.416Z,100702.96
2024-02-19T09:19:19.782Z,100701.30
2024-02-19T09:21:47.710Z,100697.81
2024-02-19T09:24:15.687Z,100701.92
2024-02-19T09:26:43.840Z,100699.25
2024-02-19T09:29:11.695Z,100693.70
2024-02-19T09:31:39.565Z,100691.33
2024-02-19T09:34:07.509Z,100690.00
2024-02-19T09:36:35.671Z,100686.92
2024-02-19T09:39:03.951Z,100684.52
2024-02-19T09:41:34.469Z,100682.06
2024-02-19T09:44:02.743Z,100680.30
2024-02-19T09:46:31.188Z,100681.42
2024-02-19T09:49:02.143Z,100682.04
2024-02-19T09:51:37.141Z,100676.09
2024-02-19T09:54:10.809Z,100676.80
2024-02-19T09:56:39.482Z,100674.86
2024-02-19T09:59:08.640Z,100668.21
2024-02-19T10:01:36.625Z,100665.23
2024-02-19T10:04:07.709Z,100662.33
2024-02-19T10:06:38.227Z,100657.72
2024-02-19T10:09:08.910Z,100654.77
2024-02-19T10:11:40.529Z,100661.27
2024-02-19T10:14:10.222Z,100660.23
2024-02-19T10:16:38.309Z,100655.17
2024-02-19T10:19:07.408Z,100644.84
2024-02-19T10:21:36.093Z,100643.67
2024-02-19T10:24:04.891Z,100641.98
2024-02-19T10:26:33.037Z,100640.63
2024-02-19T10:29:01.229Z,100639.34
2024-02-19T10:31:29.766Z,100635.91
2024-02-19T10:33:58.158Z,100632.77
2024-02-19T10:36:26.658Z,100629.27
2024-02-19T10:38:54.926Z,100627.50
2024-02-19T10:41:25.149Z,100624.67
2024-02-19T10:43:55.626Z,100619.52
2024-02-19T10:46:25.648Z,100614.77
2024-02-19T10:48:55.990Z,100611.48
2024-02-19T10:51:25.901Z,100609.35
2024-02-19T10:54:05.750Z,100612.70
2024-02-19T10:56:43.567Z,100605.17
2024-02-19T10:59:12.555Z,100599.05
2024-02-19T11:01:46.278Z,100595.56
2024-02-19T11:04:17.803Z,100592.48
2024-02-19T11:06:52.141Z,100586.14
2024-02-19T11:09:28.608Z,100582.55
2024-02-19T11:12:00.419Z,100576.29
2024-02-19T11:14:34.546Z,100574.63
2024-02-19T11:17:03.996Z,100572.98
2024-02-19T11:19:41.622Z,100566.13
2024-02-19T11:22:15.284Z,100560.83
2024-02-19T11:24:43.414Z,100557.52
2024-02-19T11:27:13.999Z,100553.70
2024-02-19T11:29:47.625Z,100555.55
2024-02-19T11:32:23.443Z,100549.54
2024-02-19T11:34:52.856Z,100546.32
2024-02-19T11:37:21.869Z,100540.67
2024-02-19T11:39:50.389Z,100539.67
2024-02-19T11:42:19.753Z,100542.31
2024-02-19T11:44:48.776Z,100532.23
2024-02-19T11:47:17.913Z,100529.33
2024-02-19T11:49:47.442Z,100521.63
2024-02-19T11:52:16.285Z,100524.07
2024-02-19T11:54:44.960Z,100521.44
2024-02-19T11:57:15.279Z,100515.30
2024-02-19T11:59:46.839Z,100510.86
2024-02-19T12:02:15.034Z,100507.08
2024-02-19T12:04:43.149Z,100506.14
2024-02-19T12:07:11.930Z,100506.09
2024-02-19T12:09:41.444Z,100501.86
2024-02-19T12:12:11.373Z,100497.15
2024-02-19T12:14:40.027Z,100490.84
2024-02-19T12:17:10.905Z,100477.34
2024-02-19T12:19:38.925Z,100476.59
2024-02-19T12:22:08.038Z,100469.68
2024-02-19T12:24:36.222Z,100466.62
2024-02-19T12:27:04.742Z,100463.36
2024-02-19T12:29:32.703Z,100455.27
2024-02-19T12:32:00.928Z,100451.52
2024-02-19T12:34:29.101Z,100450.56
2024-02-19T12:36:59.518Z,100452.36
2024-02-19T12:39:27.852Z,100446.69
2024-02-19T12:41:56.582Z,100440.97
2024-02-19T12:44:25.373Z,100438.94
2024-02-19T12:46:54.300Z,100439.19
2024-02-19T12:49:22.667Z,100435.23
2024-02-19T12:51:52.797Z,100432.11
2024-02-19T12:54:22.193Z,100428.13
2024-02-19T12:56:50.315Z,100425.72
2024-02-19T12:59:18.373Z,100422.56
2024-02-19T13:01:46.501Z,100418.29
2024-02-19T13:04:14.470Z,100422.66
2024-02-19T13:06:42.502Z,100423.28
2024-02-19T13:09:12.117Z,100412.56
2024-02-19T13:11:40.353Z,100413.59
2024-02-19T13:14:08.548Z,100411.38
2024-02-19T13:16:36.736Z,100408.31
2024-02-19T13:19:04.853Z,100401.84
2024-02-19T13:21:32.762Z,100397.84
2024-02-19T13:24:00.798Z,100391.63
2024-02-19T13:26:28.999Z,100392.24
2024-02-19T13:28:56.996Z,100391.98
2024-02-19T13:31:25.462Z,100393.19
2024-02-19T13:33:53.492Z,100380.30
2024-02-19T13:36:21.563Z,100383.19
2024-02-19T13:38:49.541Z,100378.66
2024-02-19T13:41:17.638Z,100373.27
2024-02-19T13:43:46.155Z,100370.48
2024-02-19T13:46:14.960Z,100367.36
2024-02-19T13:48:43.691Z,100365.13
2024-02-19T13:51:11.856Z,100363.30
2024-02-19T13:53:40.089Z,100358.52
2024-02-19T13:56:08.075Z,100348.66
2024-02-19T13:58:36.187Z,100345.27
2024-02-19T14:01:06.250Z,100349.30
2024-02-19T14:03:34.670Z,100348.32
2024-02-19T14:06:03.294Z,100339.66
2024-02-19T14:08:31.529Z,100345.36
2024-02-19T14:11:00.743Z,100342.02
2024-02-19T14:13:28.851Z,100335.19
2024-02-19T14:15:57.685Z,100334.02
2024-02-19T14:18:28.716Z,100330.70
2024-02-19T14:20:57.992Z,100332.41
2024-02-19T14:23:26.289Z,100330.11
2024-02-19T14:25:54.685Z,100329.80
2024-02-19T14:28:22.853Z,100334.23
2024-02-19T14:30:50.899Z,100331.73
2024-02-19T14:33:19.421Z,100325.89
2024-02-19T14:35:47.668Z,100321.60
2024-02-19T14:38:16.569Z,100322.02
2024-02-19T14:40:45.000Z,100318.11
2024-02-19T14:43:15.573Z,100311.67
2024-02-19T14:45:43.801Z,100308.75
2024-02-19T14:48:12.061Z,100307.85
2024-02-19T14:50:40.294Z,100306.73
2024-02-19T14:53:09.185Z,100301.02
2024-02-19T14:55:37.265Z,100301.94
2024-02-19T14:58:06.761Z,100297.60
2024-02-19T15:00:36.601Z,100294.39
2024-02-19T15:03:11.396Z,100289.77
2024-02-19T15:05:41.345Z,100289.58
2024-02-19T15:08:09.734Z,100283.86
2024-02-19T15:10:37.783Z,100284.23
2024-02-19T15:13:05.931Z,100286.63
2024-02-19T15:15:34.068Z,100287.19
2024-02-19T15:18:05.104Z,100282.71
2024-02-19T15:20:33.253Z,100286.12
2024-02-19T15:23:03.605Z,100289.04
2024-02-19T15:25:31.598Z,100284.88
2024-02-19T15:27:59.722Z,100280.15
2024-02-19T15:30:28.032Z,100277.48
2024-02-19T15:32:56.108Z,100280.29
2024-02-19T15:35:26.399Z,100278.81
2024-02-19T15:37:54.394Z,100281.04
2024-02-19T15:40:24.328Z,100282.79
2024-02-19T15:42:52.557Z,100282.63
2024-02-19T15:45:20.721Z,100283.05
2024-02-19T15:47:49.161Z,100280.44
2024-02-19T15:50:17.593Z,100285.86
2024-02-19T15:52:54.965Z,100289.33
2024-02-19T15:55:26.618Z,100287.17
2024-02-19T15:57:54.579Z,100284.11
2024-02-19T16:00:22.685Z,100283.41
2024-02-19T16:02:50.562Z,100292.23
2024-02-19T16:05:19.040Z,100286.06
2024-02-19T16:07:46.980Z,100286.84
2024-02-19T16:10:15.167Z,100286.11
2024-02-19T16:12:43.053Z,100284.48
2024-02-19T16:15:11.206Z,100287.33
2024-02-19T16:17:39.082Z,100286.77
2024-02-19T16:20:09.010Z,100289.41
2024-02-19T16:22:37.488Z,100284.23
2024-02-19T16:25:08.230Z,100283.61
2024-02-19T16:27:37.178Z,100288.75
2024-02-19T16:30:08.229Z,100286.45
2024-02-19T16:32:38.587Z,100288.52
2024-02-19T16:35:07.409Z,100292.11
2024-02-19T16:37:36.565Z,100296.88
2024-02-19T16:40:06.014Z,100301.11
2024-02-19T16:42:40.298Z,100304.83
2024-02-19T16:45:10.097Z,100301.02
2024-02-19T16:47:40.570Z,100305.78
2024-02-19T16:50:09.089Z,100304.05
2024-02-19T16:52:37.797Z,100304.38
2024-02-19T16:55:07.804Z,100302.85
2024-02-19T16:57:38.166Z,100305.34
2024-02-19T17:00:09.431Z,100301.14
2024-02-19T17:02:37.488Z,100304.70
2024-02-19T17:05:06.463Z,100301.83
2024-02-19T17:07:34.743Z,100303.86
2024-02-19T17:10:07.637Z,100304.75
2024-02-19T17:12:35.604Z,100303.71
2024-02-19T17:15:04.060Z,100302.52
2024-02-19T17:17:32.343Z,100306.11
2024-02-19T17:20:01.209Z,100301.41
2024-02-19T17:22:29.761Z,100306.28
2024-02-19T17:24:57.772Z,100309.64
2024-02-19T17:27:25.960Z,100309.50
2024-02-19T17:29:53.788Z,100307.52
2024-02-19T17:32:23.018Z,100311.77
2024-02-19T17:34:52.888Z,100314.63
2024-02-19T17:37:21.918Z,100311.64
2024-02-19T17:39:50.794Z,100314.66
2024-02-19T17:42:20.744Z,100313.48
2024-02-19T17:44:48.645Z,100319.20
2024-02-19T17:47:16.587Z,100320.75
2024-02-19T17:49:44.589Z,100322.63
2024-02-19T17:52:14.087Z,100329.88
2024-02-19T17:54:42.464Z,100330.54
2024-02-19T17:57:16.045Z,100330.87
2024-02-19T17:59:44.565Z,100329.67
2024-02-19T18:02:14.096Z,100331.06
2024-02-19T18:04:47.040Z,100330.60
2024-02-19T18:07:15.126Z,100334.42
2024-02-19T18:09:43.039Z,100330.20
2024-02-19T18:12:13.734Z,100333.55
2024-02-19T18:14:41.840Z,100331.88
2024-02-19T18:17:10.122Z,100336.39
2024-02-19T18:19:38.171Z,100333.88
2024-02-19T18:22:08.547Z,100337.88
2024-02-19T18:24:37.217Z,100333.61
2024-02-19T18:27:08.275Z,100336.14
2024-02-19T18:29:36.985Z,100336.15
2024-02-19T18:32:07.910Z,100339.35
2024-02-19T18:34:37.036Z,100344.79
2024-02-19T18:37:06.216Z,100349.86
2024-02-19T18:39:34.323Z,100357.51
2024-02-19T18:42:02.606Z,100356.65
2024-02-19T18:44:30.575Z,100360.79
2024-02-19T18:47:01.262Z,100362.33
2024-02-19T18:49:33.434Z,100361.25
2024-02-19T18:52:03.159Z,100362.66
2024-02-19T18:54:32.848Z,100362.64
2024-02-19T18:57:02.521Z,100371.73
2024-02-19T18:59:32.278Z,100372.54
2024-02-19T19:02:05.339Z,100374.65
2024-02-19T19:04:35.547Z,100376.59
2024-02-19T19:07:03.756Z,100377.54
2024-02-19T19:09:32.602Z,100382.86
2024-02-19T19:12:05.271Z,100378.80
2024-02-19T19:14:35.390Z,100387.90
2024-02-19T19:17:04.141Z,100384.69
2024-02-19T19:19:32.354Z,100387.40
2024-02-19T19:22:00.621Z,100389.23
2024-02-19T19:24:28.616Z,100391.20
2024-02-19T19:26:56.844Z,100390.20
2024-02-19T19:29:25.230Z,100392.30
2024-02-19T19:31:53.712Z,100404.02
2024-02-19T19:34:24.182Z,100403.61
2024-02-19T19:36:52.175Z,100404.57
2024-02-19T19:39:20.104Z,100403.83
2024-02-19T19:41:48.134Z,100406.10
2024-02-19T19:44:18.595Z,100413.08
2024-02-19T19:46:46.629Z,100414.56
2024-02-19T19:49:18.385Z,100415.84
2024-02-19T19:51:46.816Z,100416.92
2024-02-19T19:54:15.071Z,100417.76
2024-02-19T19:56:43.372Z,100420.55
2024-02-19T19:59:11.784Z,100425.42
2024-02-19T20:01:39.914Z,100427.05
2024-02-19T20:04:08.187Z,100432.46
2024-02-19T20:06:36.965Z,100437.29
2024-02-19T20:09:05.097Z,100434.60
2024-02-19T20:11:33.211Z,100439.16
2024-02-19T20:14:01.874Z,100444.70
2024-02-19T20:16:29.998Z,100443.67
2024-02-19T20:18:58.484Z,100445.20
2024-02-19T20:21:27.074Z,100449.54
2024-02-19T20:23:55.199Z,100451.71
2024-02-19T20:26:28.850Z,100450.38
2024-02-19T20:28:56.902Z,100457.48
2024-02-19T20:31:25.050Z,100460.17
2024-02-19T20:33:54.002Z,100460.30
2024-02-19T20:36:22.036Z,100463.96
2024-02-19T20:38:50.378Z,100468.05
2024-02-19T20:41:18.521Z,100468.29
2024-02-19T20:43:46.525Z,100467.61
2024-02-19T20:46:14.481Z,100470.10
2024-02-19T20:48:42.409Z,100472.48
2024-02-19T20:51:10.390Z,100469.20
2024-02-19T20:53:39.063Z,100468.19
2024-02-19T20:56:06.997Z,100473.78
2024-02-19T20:58:35.018Z,100471.40
2024-02-19T21:01:03.263Z,100472.88
2024-02-19T21:03:40.029Z,100474.30
2024-02-19T21:06:11.444Z,100477.17
2024-02-19T21:08:41.935Z,100477.46
2024-02-19T21:11:13.394Z,100479.34
2024-02-19T21:13:41.504Z,100486.09
2024-02-19T21:16:11.317Z,100483.73
2024-02-19T21:18:46.959Z,100485.13
2024-02-19T21:21:29.653Z,100487.27
2024-02-19T21:24:03.992Z,100489.45
2024-02-19T21:26:32.763Z,100490.33
2024-02-19T21:29:00.804Z,100493.80
2024-02-19T21:31:28.755Z,100493.73
2024-02-19T21:33:57.627Z,100497.55
2024-02-19T21:36:25.928Z,100493.61
2024-02-19T21:38:56.048Z,100490.27
2024-02-19T21:41:24.371Z,100492.27
2024-02-19T21:43:52.243Z,100489.89
2024-02-19T21:46:20.384Z,100489.23
2024-02-19T21:48:48.663Z,100486.98
2024-02-19T21:51:16.649Z,100492.18
2024-02-19T21:53:44.579Z,100489.77
2024-02-19T21:56:14.595Z,100490.44
2024-02-19T21:58:42.564Z,100498.20
2024-02-19T22:01:10.591Z,100497.52
2024-02-19T22:03:38.852Z,100493.84
2024-02-19T22:06:08.328Z,100496.16
2024-02-19T22:08:36.484Z,100498.30
2024-02-19T22:11:04.678Z,100503.50
2024-02-19T22:13:32.744Z,100502.83
2024-02-19T22:16:00.880Z,100507.99
2024-02-19T22:18:29.039Z,100505.94
2024-02-19T22:20:57.468Z,100500.77
2024-02-19T22:23:25.425Z,100501.58
2024-02-19T22:25:54.109Z,100505.47
2024-02-19T22:28:22.077Z,100507.34
2024-02-19T22:30:50.104Z,100508.35
2024-02-19T22:33:18.538Z,100511.70
2024-02-19T22:35:47.735Z,100514.75
2024-02-19T22:38:15.700Z,100516.80
2024-02-19T22:40:43.845Z,100515.83
2024-02-19T22:43:12.504Z,100521.77
2024-02-19T22:45:41.597Z,100519.62
2024-02-19T22:48:10.385Z,100521.27
2024-02-19T22:50:39.352Z,100524.85
2024-02-19T22:53:08.142Z,100527.27
2024-02-19T22:55:36.835Z,100527.79
2024-02-19T22:58:05.512Z,100524.08
2024-02-19T23:00:37.039Z,100526.10
2024-02-19T23:03:06.504Z,100528.93
2024-02-19T23:05:35.181Z,100527.64
2024-02-19T23:08:03.369Z,100528.80
2024-02-19T23:10:31.503Z,100530.95
2024-02-19T23:12:59.839Z,100536.53
2024-02-19T23:15:27.952Z,100537.70
2024-02-19T23:17:56.253Z,100533.73
2024-02-19T23:20:24.865Z,100536.36
2024-02-19T23:22:53.021Z,100533.75
2024-02-19T23:25:21.338Z,100532.77
2024-02-19T23:27:49.593Z,100535.13
2024-02-19T23:30:18.996Z,100530.80
2024-02-19T23:32:47.129Z,100531.39
2024-02-19T23:35:15.727Z,100535.63
2024-02-19T23:37:43.637Z,100535.66
2024-02-19T23:40:18.720Z,100529.14
2024-02-19T23:42:47.950Z,100531.02
2024-02-19T23:45:15.972Z,100531.19
2024-02-19T23:47:44.468Z,100527.64
2024-02-19T23:50:12.699Z,100529.55
2024-02-19T23:52:41.402Z,100524.48
2024-02-19T23:55:11.137Z,100522.43
2024-02-19T23:57:39.629Z,100524.73
